createdAt,value
2022-12-09T00:09:24.187Z,-3.46
2022-12-09T00:24:24.440Z,-3.81
2022-12-09T00:39:24.404Z,-3.90
2022-12-09T00:54:24.657Z,-3.88
2022-12-09T01:09:24.847Z,-3.85
2022-12-09T01:24:24.899Z,-3.54
2022-12-09T01:39:25.272Z,-3.12
2022-12-09T01:54:25.340Z,-2.79
2022-12-09T02:09:25.743Z,-2.45
2022-12-09T02:24:25.803Z,-2.48
2022-12-09T02:39:26.114Z,-2.43
2022-12-09T02:54:26.237Z,-2.32
2022-12-09T03:09:26.608Z,-2.15
2022-12-09T03:24:26.644Z,-2.00
2022-12-09T03:39:27.383Z,-2.13
2022-12-09T03:54:27.958Z,-2.27
2022-12-09T04:09:28.174Z,-2.61
2022-12-09T04:24:28.397Z,-2.96
2022-12-09T04:39:28.583Z,-3.27
2022-12-09T04:54:29.073Z,-3.35
2022-12-09T05:09:29.528Z,-3.45
2022-12-09T05:24:30.700Z,-3.81
2022-12-09T05:39:30.481Z,-4.06
2022-12-09T05:54:30.976Z,-4.47
2022-12-09T06:09:32.287Z,-4.78
2022-12-09T06:24:33.103Z,-4.67
2022-12-09T06:39:33.220Z,-4.28
2022-12-09T06:54:33.512Z,-3.72
2022-12-09T07:09:34.181Z,-3.24
2022-12-09T07:24:34.746Z,-2.81
2022-12-09T07:39:34.906Z,-2.52
2022-12-09T07:54:35.112Z,-2.16
2022-12-09T08:09:35.824Z,-1.74
2022-12-09T08:24:36.847Z,-1.55
2022-12-09T08:39:37.612Z,-1.37
2022-12-09T08:54:38.160Z,-1.22
2022-12-09T09:09:39.523Z,-1.01
2022-12-09T09:24:40.384Z,-0.94
2022-12-09T09:39:40.603Z,-0.72
2022-12-09T09:54:41.676Z,-0.70
2022-12-09T10:09:42.383Z,-0.60
2022-12-09T10:24:43.159Z,-0.42
2022-12-09T10:39:43.339Z,-0.37
2022-12-09T10:54:43.532Z,-0.10
2022-12-09T11:09:44.774Z,0.08
2022-12-09T11:24:45.829Z,0.08
2022-12-09T11:39:46.547Z,0.02
2022-12-09T11:54:47.059Z,0.03
2022-12-09T12:09:47.695Z,0.18
2022-12-09T12:24:48.348Z,0.29
2022-12-09T12:39:48.926Z,0.21
2022-12-09T12:54:49.535Z,0.31
2022-12-09T13:09:50.181Z,0.35
2022-12-09T13:24:54.117Z,0.29
2022-12-09T13:39:56.172Z,0.29
2022-12-09T13:54:56.276Z,0.14
2022-12-09T14:09:56.597Z,0.23
2022-12-09T14:24:57.137Z,0.07
2022-12-09T14:39:57.473Z,-0.10
2022-12-09T14:54:57.429Z,-0.14
2022-12-09T15:09:57.572Z,-0.16
2022-12-09T15:24:57.809Z,-0.34
2022-12-09T15:39:58.040Z,-0.40
2022-12-09T15:54:58.382Z,-0.58
2022-12-09T16:09:58.251Z,-0.69
2022-12-09T16:25:14.330Z,-0.67
2022-12-09T16:40:03.590Z,-0.73
2022-12-09T16:55:03.808Z,-0.91
2022-12-09T17:10:04.471Z,-0.92
2022-12-09T17:25:05.537Z,-0.97
2022-12-09T17:40:06.328Z,-1.05
2022-12-09T17:55:06.839Z,-1.16
2022-12-09T18:10:07.996Z,-1.27
2022-12-09T18:25:08.808Z,-1.41
2022-12-09T18:40:09.191Z,-1.35
2022-12-09T18:55:09.196Z,-1.38
2022-12-09T19:10:09.693Z,-1.25
2022-12-09T19:25:09.613Z,-1.23
2022-12-09T19:40:10.294Z,-1.16
2022-12-09T19:55:11.058Z,-1.20
2022-12-09T20:10:11.333Z,-1.31
2022-12-09T20:25:11.500Z,-1.37
2022-12-09T20:40:11.821Z,-1.48
2022-12-09T20:55:11.988Z,-1.49
2022-12-09T21:10:12.753Z,-1.62
2022-12-09T21:25:12.987Z,-1.70
2022-12-09T21:40:13.194Z,-1.66
2022-12-09T21:55:13.912Z,-1.72
2022-12-09T22:10:14.619Z,-1.62
2022-12-09T22:25:14.925Z,-1.66
2022-12-09T22:40:15.249Z,-1.74
2022-12-09T22:55:15.530Z,-1.79
2022-12-09T23:10:15.856Z,-1.72
2022-12-09T23:25:17.851Z,-1.67
2022-12-09T23:40:18.526Z,-1.74
2022-12-09T23:55:18.711Z,-1.76
